createdAt,value
2023-03-21T00:01:30.034Z,11.32
2023-03-21T00:03:57.029Z,12.30
2023-03-21T00:06:24.042Z,11.45
2023-03-21T00:08:51.270Z,12.23
2023-03-21T00:11:18.272Z,12.25
2023-03-21T00:13:45.177Z,12.70
2023-03-21T00:16:22.709Z,12.63
2023-03-21T00:18:58.481Z,12.40
2023-03-21T00:24:15.326Z,12.57
2023-03-21T00:26:42.184Z,13.10
2023-03-21T00:29:09.032Z,11.52
2023-03-21T00:31:35.952Z,12.07
2023-03-21T00:34:02.885Z,11.90
2023-03-21T00:36:29.808Z,12.52
2023-03-21T00:38:56.741Z,11.98
2023-03-21T00:41:41.023Z,12.93
2023-03-21T00:44:11.757Z,11.73
2023-03-21T00:46:57.287Z,11.65
2023-03-21T00:49:26.058Z,11.82
2023-03-21T00:51:55.197Z,13.00
2023-03-21T00:54:24.132Z,12.45
2023-03-21T00:56:50.983Z,12.25
2023-03-21T00:59:17.894Z,12.27
2023-03-21T01:01:46.888Z,12.52
2023-03-21T01:04:17.109Z,12.10
2023-03-21T01:06:44.516Z,10.35
2023-03-21T01:09:20.745Z,12.05
2023-03-21T01:11:48.399Z,11.27
2023-03-21T01:14:22.968Z,11.38
2023-03-21T01:16:54.057Z,11.57
2023-03-21T01:19:30.888Z,11.63
2023-03-21T01:22:04.973Z,12.05
2023-03-21T01:24:32.510Z,11.55
2023-03-21T01:27:02.863Z,11.77
2023-03-21T01:29:29.765Z,10.43
2023-03-21T01:31:56.756Z,9.98
2023-03-21T01:34:23.641Z,9.48
2023-03-21T01:36:50.529Z,10.60
2023-03-21T01:39:17.421Z,9.95
2023-03-21T01:41:44.870Z,11.32
2023-03-21T01:44:17.751Z,11.00
2023-03-21T01:47:09.351Z,11.75
2023-03-21T01:49:41.777Z,11.90
2023-03-21T01:52:23.592Z,11.70
2023-03-21T01:54:56.176Z,11.63
2023-03-21T01:57:40.413Z,12.05
2023-03-21T02:00:15.453Z,11.82
2023-03-21T02:02:58.210Z,11.73
2023-03-21T02:05:47.765Z,11.68
2023-03-21T02:08:14.836Z,11.90
2023-03-21T02:10:45.627Z,11.65
2023-03-21T02:13:12.712Z,12.60
2023-03-21T02:15:42.703Z,12.82
2023-03-21T02:18:44.244Z,12.68
2023-03-21T02:21:37.880Z,11.75
2023-03-21T02:24:32.409Z,13.37
2023-03-21T02:27:21.991Z,13.15
2023-03-21T02:30:00.524Z,11.88
2023-03-21T02:33:01.118Z,11.50
2023-03-21T02:35:50.636Z,11.57
2023-03-21T02:38:38.399Z,10.07
2023-03-21T02:41:25.384Z,8.95
2023-03-21T02:44:00.258Z,9.40
2023-03-21T02:47:05.562Z,9.43
2023-03-21T02:49:56.524Z,11.75
2023-03-21T02:52:38.502Z,12.27
2023-03-21T02:55:14.167Z,12.93
2023-03-21T02:57:45.348Z,12.75
2023-03-21T03:00:18.981Z,12.10
2023-03-21T03:02:47.426Z,12.88
2023-03-21T03:05:27.246Z,12.35
2023-03-21T03:07:56.890Z,12.27
2023-03-21T03:10:44.764Z,12.43
2023-03-21T03:13:32.645Z,12.77
2023-03-21T03:16:22.809Z,10.93
2023-03-21T03:19:01.469Z,12.00
2023-03-21T03:21:38.362Z,12.02
2023-03-21T03:24:24.509Z,10.27
2023-03-21T03:26:57.593Z,10.73
2023-03-21T03:29:27.830Z,10.57
2023-03-21T03:32:18.952Z,10.52
2023-03-21T03:34:56.454Z,12.93
2023-03-21T03:37:31.011Z,11.13
2023-03-21T03:40:07.009Z,12.23
2023-03-21T03:42:38.904Z,11.65
2023-03-21T03:45:07.150Z,11.55
2023-03-21T03:47:56.471Z,11.95
2023-03-21T03:50:29.967Z,10.80
2023-03-21T03:53:27.622Z,9.98
2023-03-21T03:55:56.519Z,10.35
2023-03-21T03:58:36.162Z,10.10
2023-03-21T04:01:10.959Z,10.57
2023-03-21T04:03:48.958Z,10.18
2023-03-21T04:06:18.588Z,11.13
2023-03-21T04:08:45.660Z,11.27
2023-03-21T04:11:15.911Z,12.57
2023-03-21T04:13:42.798Z,14.82
2023-03-21T04:16:11.676Z,15.10
2023-03-21T04:18:42.079Z,14.70
2023-03-21T04:21:13.669Z,15.75
2023-03-21T04:23:41.243Z,14.27
2023-03-21T04:26:08.675Z,13.85
2023-03-21T04:28:37.171Z,13.60
2023-03-21T04:31:22.666Z,12.88
2023-03-21T04:33:51.674Z,14.23
2023-03-21T04:36:39.226Z,15.00
2023-03-21T04:39:12.358Z,15.70
2023-03-21T04:41:44.600Z,14.40
2023-03-21T04:44:12.731Z,13.23
2023-03-21T04:46:41.078Z,11.95
2023-03-21T04:49:08.352Z,11.60
2023-03-21T04:51:36.267Z,11.73
2023-03-21T04:54:03.471Z,12.73
2023-03-21T04:56:34.209Z,12.70
2023-03-21T04:59:06.179Z,14.88
2023-03-21T05:01:34.126Z,18.17
2023-03-21T05:04:03.615Z,20.75
2023-03-21T05:06:30.960Z,19.20
2023-03-21T05:09:05.398Z,19.85
2023-03-21T05:11:35.909Z,19.40
2023-03-21T05:14:03.375Z,20.17
2023-03-21T05:16:31.026Z,19.15
2023-03-21T05:18:59.340Z,18.63
2023-03-21T05:21:29.535Z,17.58
2023-03-21T05:23:58.475Z,16.70
2023-03-21T05:26:25.624Z,15.52
2023-03-21T05:28:52.591Z,14.70
2023-03-21T05:31:20.469Z,14.35
2023-03-21T05:33:48.471Z,13.48
2023-03-21T05:36:16.040Z,14.43
2023-03-21T05:38:45.753Z,15.65
2023-03-21T05:41:14.077Z,14.98
2023-03-21T05:43:41.020Z,17.40
2023-03-21T05:46:08.441Z,18.65
2023-03-21T05:48:36.172Z,18.90
2023-03-21T05:51:03.900Z,17.45
2023-03-21T05:53:30.822Z,16.73
2023-03-21T05:56:00.870Z,16.98
2023-03-21T05:58:27.761Z,17.80
2023-03-21T06:00:55.341Z,18.30
2023-03-21T06:03:22.343Z,17.98
2023-03-21T06:05:49.194Z,20.33
2023-03-21T06:08:16.109Z,20.90
2023-03-21T06:10:43.032Z,20.00
2023-03-21T06:13:09.875Z,20.00
2023-03-21T06:15:37.235Z,20.10
2023-03-21T06:18:04.380Z,20.45
2023-03-21T06:20:31.278Z,20.35
2023-03-21T06:22:58.122Z,19.45
2023-03-21T06:25:25.299Z,19.65
2023-03-21T06:27:52.245Z,20.08
2023-03-21T06:30:19.356Z,20.25
2023-03-21T06:32:46.196Z,19.13
2023-03-21T06:35:13.023Z,19.73
2023-03-21T06:37:40.024Z,17.73
2023-03-21T06:40:08.077Z,18.40
2023-03-21T06:42:34.936Z,18.20
2023-03-21T06:45:01.940Z,18.75
2023-03-21T06:47:28.787Z,17.23
2023-03-21T06:49:55.651Z,17.70
2023-03-21T06:52:22.486Z,17.45
2023-03-21T06:54:49.576Z,15.80
2023-03-21T06:57:18.153Z,14.32
2023-03-21T06:59:45.064Z,14.48
2023-03-21T07:02:12.522Z,14.90
2023-03-21T07:04:39.393Z,18.88
2023-03-21T07:07:06.304Z,17.40
2023-03-21T07:09:33.141Z,19.73
2023-03-21T07:11:59.996Z,19.83
2023-03-21T07:14:27.093Z,21.17
2023-03-21T07:16:53.943Z,21.02
2023-03-21T07:19:20.815Z,19.88
2023-03-21T07:21:47.685Z,18.15
2023-03-21T07:24:14.528Z,18.60
2023-03-21T07:26:41.452Z,19.30
2023-03-21T07:29:08.448Z,20.55
2023-03-21T07:31:35.757Z,20.38
2023-03-21T07:34:02.716Z,19.00
2023-03-21T07:36:29.597Z,19.05
2023-03-21T07:38:56.500Z,17.90
2023-03-21T07:41:23.361Z,18.45
2023-03-21T07:43:50.307Z,19.42
2023-03-21T07:46:17.151Z,17.98
2023-03-21T07:48:43.962Z,17.23
2023-03-21T07:51:10.797Z,17.80
2023-03-21T07:53:37.723Z,16.48
2023-03-21T07:56:05.720Z,16.35
2023-03-21T07:58:34.348Z,15.65
2023-03-21T08:01:02.334Z,16.10
2023-03-21T08:03:30.061Z,16.27
2023-03-21T08:05:58.971Z,16.30
2023-03-21T08:08:26.162Z,16.10
2023-03-21T08:10:53.092Z,16.00
2023-03-21T08:13:20.097Z,15.50
2023-03-21T08:15:47.255Z,15.35
2023-03-21T08:18:14.123Z,14.55
2023-03-21T08:20:41.390Z,15.35
2023-03-21T08:23:08.369Z,14.57
2023-03-21T08:25:35.790Z,14.95
2023-03-21T08:28:03.443Z,15.95
2023-03-21T08:30:30.658Z,16.33
2023-03-21T08:33:01.957Z,16.05
2023-03-21T08:35:29.764Z,15.65
2023-03-21T08:37:57.800Z,15.38
2023-03-21T08:40:25.053Z,15.10
2023-03-21T08:42:51.929Z,15.82
2023-03-21T08:45:18.949Z,17.63
2023-03-21T08:47:46.739Z,16.58
2023-03-21T08:50:17.533Z,18.20
2023-03-21T08:52:44.836Z,17.33
2023-03-21T08:55:13.480Z,17.15
2023-03-21T08:57:40.508Z,16.98
2023-03-21T09:00:17.343Z,18.13
2023-03-21T09:02:47.364Z,18.98
2023-03-21T09:05:16.780Z,19.95
2023-03-21T09:07:44.519Z,21.73
2023-03-21T09:10:22.853Z,21.75
2023-03-21T09:12:52.064Z,21.00
2023-03-21T09:15:22.259Z,20.20
2023-03-21T09:17:52.843Z,19.23
2023-03-21T09:20:22.990Z,19.95
2023-03-21T09:22:52.680Z,20.42
2023-03-21T09:25:20.736Z,18.80
2023-03-21T09:27:48.085Z,17.23
2023-03-21T09:30:17.918Z,18.73
2023-03-21T09:32:49.579Z,18.20
2023-03-21T09:35:18.909Z,17.17
2023-03-21T09:37:50.043Z,16.15
2023-03-21T09:40:50.601Z,17.05
2023-03-21T09:43:33.176Z,15.30
2023-03-21T09:46:18.617Z,14.75
2023-03-21T09:49:08.077Z,14.57
2023-03-21T09:51:46.121Z,13.27
2023-03-21T09:54:25.018Z,14.50
2023-03-21T09:56:55.965Z,12.45
2023-03-21T09:59:33.551Z,12.23
2023-03-21T10:02:01.883Z,12.85
2023-03-21T10:04:29.646Z,11.10
2023-03-21T10:07:02.349Z,10.38
2023-03-21T10:09:32.614Z,11.90
2023-03-21T10:12:06.475Z,11.75
2023-03-21T10:14:43.945Z,12.85
2023-03-21T10:17:27.105Z,14.05
2023-03-21T10:20:18.798Z,16.92
2023-03-21T10:22:47.760Z,12.63
2023-03-21T10:25:39.160Z,10.93
2023-03-21T10:28:11.879Z,9.85
2023-03-21T10:30:52.057Z,9.00
2023-03-21T10:33:23.805Z,11.32
2023-03-21T10:35:55.647Z,9.48
2023-03-21T10:38:25.983Z,8.15
2023-03-21T10:40:53.161Z,6.63
2023-03-21T10:43:35.643Z,7.25
2023-03-21T10:46:13.545Z,6.82
2023-03-21T10:48:46.439Z,6.60
2023-03-21T10:51:19.473Z,6.75
2023-03-21T10:53:53.818Z,7.70
2023-03-21T10:56:26.634Z,7.22
2023-03-21T10:58:56.260Z,6.97
2023-03-21T11:01:30.647Z,5.30
2023-03-21T11:04:01.563Z,6.00
2023-03-21T11:06:33.813Z,6.15
2023-03-21T11:09:06.664Z,5.97
2023-03-21T11:11:35.688Z,6.00
2023-03-21T11:14:07.245Z,6.95
2023-03-21T11:16:41.487Z,6.10
2023-03-21T11:19:17.989Z,6.32
2023-03-21T11:21:45.367Z,6.20
2023-03-21T11:24:15.966Z,6.40
2023-03-21T11:26:45.530Z,7.38
2023-03-21T11:29:46.372Z,6.40
2023-03-21T11:32:18.088Z,7.00
2023-03-21T11:34:47.666Z,7.85
2023-03-21T11:37:24.465Z,6.68
2023-03-21T11:39:57.238Z,7.38
2023-03-21T11:42:32.899Z,6.37
2023-03-21T11:45:33.736Z,7.40
2023-03-21T11:48:05.422Z,6.70
2023-03-21T11:50:36.348Z,6.88
2023-03-21T11:53:50.930Z,7.25
2023-03-21T11:56:23.982Z,6.65
2023-03-21T11:59:22.848Z,6.80
2023-03-21T12:01:49.670Z,5.93
2023-03-21T12:04:31.912Z,6.05
2023-03-21T12:07:13.544Z,5.90
2023-03-21T12:10:01.750Z,6.35
2023-03-21T12:12:39.337Z,6.38
2023-03-21T12:15:34.671Z,5.78
2023-03-21T12:18:07.480Z,6.40
2023-03-21T12:20:42.619Z,6.57
2023-03-21T12:23:15.531Z,6.03
2023-03-21T12:26:10.104Z,6.30
2023-03-21T12:28:47.812Z,4.93
2023-03-21T12:31:48.987Z,5.10
2023-03-21T12:34:53.197Z,5.30
2023-03-21T12:37:45.602Z,4.97
2023-03-21T12:40:34.422Z,4.38
2023-03-21T12:43:32.320Z,4.07
2023-03-21T12:46:06.112Z,4.57
2023-03-21T12:48:45.527Z,5.47
2023-03-21T12:51:19.343Z,5.85
2023-03-21T12:54:04.775Z,6.13
2023-03-21T12:56:36.063Z,4.85
2023-03-21T12:59:42.021Z,3.92
2023-03-21T13:02:23.874Z,4.88
2023-03-21T13:05:06.059Z,3.70
2023-03-21T13:07:41.469Z,3.55
2023-03-21T13:10:17.519Z,3.70
2023-03-21T13:13:09.996Z,5.05
2023-03-21T13:15:52.782Z,4.60
2023-03-21T13:18:40.929Z,6.03
2023-03-21T13:21:25.984Z,5.95
2023-03-21T13:24:05.601Z,6.57
2023-03-21T13:26:38.118Z,5.15
2023-03-21T13:29:25.764Z,5.57
2023-03-21T13:31:57.338Z,5.50
2023-03-21T13:34:25.742Z,5.72
2023-03-21T13:36:56.543Z,5.65
2023-03-21T13:39:29.213Z,7.72
2023-03-21T13:42:01.267Z,7.90
2023-03-21T13:44:50.615Z,6.03
2023-03-21T13:47:35.851Z,5.57
2023-03-21T13:50:17.776Z,6.10
2023-03-21T13:53:03.516Z,6.25
2023-03-21T13:56:20.500Z,9.07
2023-03-21T13:58:48.144Z,21.05
2023-03-21T14:01:27.295Z,10.27
2023-03-21T14:04:07.136Z,6.43
2023-03-21T14:07:03.637Z,5.78
2023-03-21T14:09:40.688Z,8.75
2023-03-21T14:12:11.460Z,13.27
2023-03-21T14:14:42.342Z,15.02
2023-03-21T14:17:27.644Z,11.35
2023-03-21T14:19:59.513Z,6.20
2023-03-21T14:22:27.094Z,4.70
2023-03-21T14:25:01.868Z,4.50
2023-03-21T14:27:34.711Z,4.45
2023-03-21T14:30:03.591Z,4.22
2023-03-21T14:32:31.460Z,3.70
2023-03-21T14:35:03.660Z,3.83
2023-03-21T14:37:32.527Z,3.92
2023-03-21T14:40:02.032Z,9.40
2023-03-21T14:42:34.810Z,10.00
2023-03-21T14:45:15.775Z,6.00
2023-03-21T14:47:54.135Z,2.92
2023-03-21T14:50:23.467Z,2.88
2023-03-21T14:52:53.445Z,2.70
2023-03-21T14:55:20.473Z,3.85
2023-03-21T14:57:48.718Z,4.47
2023-03-21T15:00:27.467Z,6.93
2023-03-21T15:02:57.769Z,8.65
2023-03-21T15:05:33.400Z,7.05
2023-03-21T15:08:07.997Z,4.53
2023-03-21T15:10:35.092Z,4.43
2023-03-21T15:13:17.000Z,3.83
2023-03-21T15:15:44.558Z,3.67
2023-03-21T15:18:15.469Z,7.88
2023-03-21T15:20:42.797Z,7.68
2023-03-21T15:23:14.504Z,4.38
2023-03-21T15:25:42.324Z,3.63
2023-03-21T15:28:14.580Z,4.05
2023-03-21T15:30:49.548Z,3.73
2023-03-21T15:33:17.992Z,3.45
2023-03-21T15:35:53.963Z,4.32
2023-03-21T15:38:40.354Z,4.13
2023-03-21T15:41:25.711Z,4.22
2023-03-21T15:44:01.905Z,5.00
2023-03-21T15:46:45.256Z,4.47
2023-03-21T15:51:49.059Z,5.40
2023-03-21T15:54:22.207Z,5.40
2023-03-21T15:56:51.864Z,5.32
2023-03-21T15:59:19.566Z,5.50
2023-03-21T16:01:51.108Z,4.65
2023-03-21T16:04:21.161Z,5.68
2023-03-21T16:07:17.419Z,5.55
2023-03-21T16:09:46.708Z,5.10
2023-03-21T16:12:18.291Z,5.78
2023-03-21T16:14:47.371Z,6.75
2023-03-21T16:17:39.444Z,6.68
2023-03-21T16:20:20.354Z,6.97
2023-03-21T16:22:48.186Z,6.93
2023-03-21T16:25:15.734Z,7.00
2023-03-21T16:27:43.021Z,6.70
2023-03-21T16:30:13.878Z,6.10
2023-03-21T16:32:41.034Z,6.47
2023-03-21T16:35:08.737Z,7.60
2023-03-21T16:37:35.755Z,6.97
2023-03-21T16:40:05.899Z,7.15
2023-03-21T16:42:32.799Z,7.53
2023-03-21T16:44:59.656Z,7.10
2023-03-21T16:47:26.522Z,6.32
2023-03-21T16:49:53.384Z,5.70
2023-03-21T16:52:20.771Z,7.43
2023-03-21T16:54:47.660Z,6.85
2023-03-21T16:57:29.059Z,6.80
2023-03-21T16:59:56.306Z,7.53
2023-03-21T17:02:24.847Z,7.25
2023-03-21T17:04:51.750Z,7.78
2023-03-21T17:07:19.296Z,6.78
2023-03-21T17:09:48.027Z,7.20
2023-03-21T17:12:16.626Z,7.22
2023-03-21T17:14:44.707Z,6.57
2023-03-21T17:17:13.388Z,6.85
2023-03-21T17:19:40.597Z,5.85
2023-03-21T17:22:08.388Z,6.00
2023-03-21T17:24:35.941Z,5.20
2023-03-21T17:27:05.033Z,5.35
2023-03-21T17:29:31.904Z,5.35
2023-03-21T17:31:58.776Z,5.28
2023-03-21T17:34:26.453Z,5.50
2023-03-21T17:36:53.305Z,5.63
2023-03-21T17:39:23.953Z,5.28
2023-03-21T17:41:52.400Z,5.10
2023-03-21T17:44:19.850Z,5.05
2023-03-21T17:46:48.476Z,5.20
2023-03-21T17:49:16.719Z,6.40
2023-03-21T17:51:46.816Z,6.10
2023-03-21T17:54:13.871Z,5.50
2023-03-21T17:56:42.152Z,5.07
2023-03-21T17:59:12.947Z,5.38
2023-03-21T18:01:40.271Z,4.88
2023-03-21T18:04:07.372Z,5.05
2023-03-21T18:06:35.033Z,5.30
2023-03-21T18:09:07.114Z,5.00
2023-03-21T18:11:34.276Z,5.00
2023-03-21T18:14:14.951Z,5.75
2023-03-21T18:16:43.201Z,5.40
2023-03-21T18:19:12.774Z,5.28
2023-03-21T18:21:46.542Z,5.30
2023-03-21T18:24:14.608Z,5.72
2023-03-21T18:26:42.278Z,5.10
2023-03-21T18:32:06.732Z,4.90
2023-03-21T18:34:36.072Z,4.93
2023-03-21T18:37:04.354Z,4.53
2023-03-21T18:39:32.487Z,4.57
2023-03-21T18:42:04.270Z,5.32
2023-03-21T18:44:37.678Z,4.60
2023-03-21T18:47:06.546Z,5.03
2023-03-21T18:52:20.898Z,5.57
2023-03-21T18:54:47.828Z,5.30
2023-03-21T19:00:02.922Z,5.82
2023-03-21T19:02:29.733Z,5.68
2023-03-21T19:04:57.918Z,5.55
2023-03-21T19:07:25.014Z,6.18
2023-03-21T19:10:13.962Z,6.30
2023-03-21T19:12:38.759Z,6.15
2023-03-21T19:15:06.262Z,6.20
2023-03-21T19:20:20.376Z,6.95
2023-03-21T19:22:47.671Z,6.00
2023-03-21T19:25:16.073Z,6.63
2023-03-21T19:27:43.764Z,6.20
2023-03-21T19:30:15.627Z,7.10
2023-03-21T19:32:43.153Z,6.63
2023-03-21T19:35:10.638Z,7.00
2023-03-21T19:37:37.680Z,6.60
2023-03-21T19:40:06.087Z,6.00
2023-03-21T19:42:34.106Z,6.80
2023-03-21T19:45:01.691Z,7.28
2023-03-21T19:47:28.578Z,6.60
2023-03-21T19:50:40.871Z,7.03
2023-03-21T19:52:42.611Z,6.20
2023-03-21T19:55:10.866Z,6.43
2023-03-21T19:57:37.728Z,6.80
2023-03-21T20:00:05.108Z,7.25
2023-03-21T20:02:36.797Z,7.00
2023-03-21T20:05:05.598Z,6.28
2023-03-21T20:07:33.129Z,6.97
2023-03-21T20:10:00.406Z,7.70
2023-03-21T20:12:27.671Z,7.40
2023-03-21T20:15:06.966Z,6.70
2023-03-21T20:17:39.008Z,7.53
2023-03-21T20:20:15.032Z,7.60
2023-03-21T20:23:05.650Z,7.38
2023-03-21T20:25:30.100Z,7.68
2023-03-21T20:28:14.568Z,7.93
2023-03-21T20:30:51.130Z,7.60
2023-03-21T20:33:18.014Z,8.35
2023-03-21T20:36:29.474Z,8.27
2023-03-21T20:38:33.556Z,8.50
2023-03-21T20:41:02.659Z,7.60
2023-03-21T20:46:18.158Z,9.02
2023-03-21T20:48:48.852Z,9.38
2023-03-21T20:54:03.581Z,8.23
2023-03-21T20:56:30.659Z,8.57
2023-03-21T20:59:12.521Z,9.07
2023-03-21T21:01:43.358Z,9.02
2023-03-21T21:04:10.420Z,8.63
2023-03-21T21:06:38.802Z,10.98
2023-03-21T21:09:05.757Z,10.50
2023-03-21T21:12:05.779Z,9.82
2023-03-21T21:14:20.233Z,9.77
2023-03-21T21:16:51.656Z,9.18
2023-03-21T21:19:21.820Z,10.65
2023-03-21T21:21:49.942Z,10.15
2023-03-21T21:24:17.010Z,10.30
2023-03-21T21:26:46.447Z,10.68
2023-03-21T21:29:17.007Z,11.18
2023-03-21T21:31:46.949Z,11.05
2023-03-21T21:34:15.841Z,10.68
2023-03-21T21:36:45.066Z,11.60
2023-03-21T21:39:16.081Z,11.35
2023-03-21T21:41:43.398Z,11.60
2023-03-21T21:44:11.138Z,12.07
2023-03-21T21:46:39.425Z,12.63
2023-03-21T21:49:06.795Z,11.35
2023-03-21T21:51:35.141Z,11.65
2023-03-21T21:54:04.083Z,12.20
2023-03-21T21:56:38.505Z,11.18
2023-03-21T21:59:05.697Z,11.63
2023-03-21T22:01:38.775Z,11.70
2023-03-21T22:04:10.992Z,12.38
2023-03-21T22:06:38.220Z,12.13
2023-03-21T22:09:07.111Z,12.52
2023-03-21T22:11:34.371Z,14.05
2023-03-21T22:14:01.395Z,11.90
2023-03-21T22:16:28.657Z,12.32
2023-03-21T22:18:55.933Z,12.73
2023-03-21T22:21:22.993Z,12.48
2023-03-21T22:23:52.026Z,13.70
2023-03-21T22:26:19.690Z,12.85
2023-03-21T22:28:46.752Z,12.93
2023-03-21T22:31:16.393Z,12.35
2023-03-21T22:33:44.669Z,13.75
2023-03-21T22:36:11.927Z,13.48
2023-03-21T22:38:39.012Z,12.77
2023-03-21T22:41:06.734Z,13.48
2023-03-21T22:43:35.443Z,13.05
2023-03-21T22:46:04.077Z,13.07
2023-03-21T22:48:31.742Z,13.55
2023-03-21T22:51:00.135Z,13.32
2023-03-21T22:53:27.514Z,14.27
2023-03-21T22:55:54.859Z,14.27
2023-03-21T22:58:22.156Z,14.25
2023-03-21T23:00:49.350Z,14.38
2023-03-21T23:03:17.133Z,13.77
2023-03-21T23:05:45.345Z,13.70
2023-03-21T23:08:13.474Z,14.32
2023-03-21T23:10:43.850Z,14.02
2023-03-21T23:13:11.504Z,15.68
2023-03-21T23:15:38.935Z,14.73
2023-03-21T23:18:06.092Z,14.95
2023-03-21T23:20:33.221Z,15.32
2023-03-21T23:23:00.309Z,14.77
2023-03-21T23:25:29.177Z,15.10
2023-03-21T23:27:56.264Z,15.95
2023-03-21T23:30:23.311Z,15.80
2023-03-21T23:32:50.387Z,16.90
2023-03-21T23:35:17.642Z,16.38
2023-03-21T23:37:52.203Z,16.73
2023-03-21T23:40:20.479Z,16.40
2023-03-21T23:42:47.434Z,16.33
2023-03-21T23:45:14.506Z,17.05
2023-03-21T23:47:41.512Z,16.85
2023-03-21T23:50:10.021Z,17.50
2023-03-21T23:52:38.204Z,17.23
2023-03-21T23:55:06.090Z,17.17
2023-03-21T23:57:33.430Z,17.40
